Time;durP1;ratioP1;P1;durP2;ratioP2;P2;SDS_P1;SDS_P2;PMS_P1;PMS_P2;Temp;Humidity;BMP_temperature;BMP_pressure;BME280_temperature;BME280_humidity;BME280_pressure;Samples;Min_cycle;Max_cycle;Signal;HPM_P1;HPM_P2
2022/03/22 00:01:30;;;;;;;24.53;13.93;;;9.40;45.00;;;;;;5070044;28;20228;-72
2022/03/22 00:03:57;;;;;;;26.13;14.10;;;9.40;45.10;;;;;;5079025;28;20221;-70
2022/03/22 00:06:24;;;;;;;25.53;14.80;;;9.30;45.10;;;;;;5078786;28;20266;-67
2022/03/22 00:08:51;;;;;;;25.90;13.87;;;9.30;45.30;;;;;;5078748;28;20205;-70
2022/03/22 00:11:18;;;;;;;28.77;15.17;;;9.20;45.50;;;;;;5071577;28;20228;-70
2022/03/22 00:13:45;;;;;;;29.47;14.47;;;9.20;45.70;;;;;;5073118;28;20729;-69
2022/03/22 00:16:12;;;;;;;24.40;13.57;;;9.10;45.90;;;;;;5076895;28;20201;-69
2022/03/22 00:18:40;;;;;;;29.47;14.53;;;9.10;46.10;;;;;;5063223;28;20229;-69
2022/03/22 00:21:07;;;;;;;23.73;14.23;;;9.00;46.30;;;;;;5068179;28;20296;-70
2022/03/22 00:23:34;;;;;;;24.33;14.47;;;8.90;46.50;;;;;;5074432;28;20208;-70
2022/03/22 00:26:02;;;;;;;24.50;13.90;;;8.90;46.60;;;;;;5076543;28;20205;-69
2022/03/22 00:28:30;;;;;;;26.90;15.20;;;8.90;46.60;;;;;;5071470;28;20213;-69
2022/03/22 00:30:57;;;;;;;33.00;15.47;;;8.80;46.80;;;;;;5076432;28;20213;-69
2022/03/22 00:33:24;;;;;;;26.17;15.37;;;8.70;47.00;;;;;;5077222;28;20288;-70
2022/03/22 00:35:53;;;;;;;28.77;15.03;;;8.70;47.20;;;;;;5074584;28;20639;-68
2022/03/22 00:38:21;;;;;;;30.30;17.90;;;8.70;47.40;;;;;;5067806;28;20237;-69
2022/03/22 00:40:49;;;;;;;26.83;16.77;;;8.60;47.60;;;;;;5067591;28;20209;-70
2022/03/22 00:43:16;;;;;;;29.47;17.30;;;8.60;47.70;;;;;;5066367;28;20305;-69
2022/03/22 00:45:43;;;;;;;28.17;17.47;;;8.60;47.90;;;;;;5078156;28;20229;-68
2022/03/22 00:48:13;;;;;;;31.57;18.10;;;8.50;48.00;;;;;;5074678;28;20229;-68
2022/03/22 00:50:43;;;;;;;33.00;18.27;;;8.50;48.20;;;;;;5065807;28;20693;-68
2022/03/22 00:53:12;;;;;;;32.40;19.87;;;8.40;48.40;;;;;;5076148;28;20201;-67
2022/03/22 00:55:40;;;;;;;32.10;19.57;;;8.40;48.50;;;;;;5076818;28;20288;-68
2022/03/22 00:58:08;;;;;;;35.67;21.30;;;8.30;48.50;;;;;;5075518;28;20201;-70
2022/03/22 01:00:35;;;;;;;39.27;22.17;;;8.30;48.70;;;;;;5077371;28;20205;-69
2022/03/22 01:03:05;;;;;;;44.17;23.70;;;8.30;49.00;;;;;;5076553;28;20205;-69
2022/03/22 01:05:32;;;;;;;44.73;25.80;;;8.20;49.10;;;;;;5063589;28;20205;-70
2022/03/22 01:08:03;;;;;;;38.37;23.47;;;8.20;49.10;;;;;;5063125;28;20206;-69
2022/03/22 01:10:36;;;;;;;41.80;24.87;;;8.10;49.10;;;;;;5061808;28;20217;-69
2022/03/22 01:13:03;;;;;;;40.97;25.23;;;8.10;49.20;;;;;;5076125;28;20208;-68
2022/03/22 01:15:33;;;;;;;45.87;26.17;;;8.00;49.30;;;;;;5072421;28;20197;-69
2022/03/22 01:18:03;;;;;;;52.07;26.00;;;8.00;49.50;;;;;;5057505;28;20658;-69
2022/03/22 01:20:33;;;;;;;48.30;26.10;;;8.00;49.70;;;;;;5059462;28;20642;-68
2022/03/22 01:23:02;;;;;;;45.53;26.10;;;8.00;50.00;;;;;;5069058;28;20209;-68
2022/03/22 01:25:30;;;;;;;44.63;24.23;;;7.90;50.10;;;;;;5070623;28;20229;-68
2022/03/22 01:27:59;;;;;;;44.57;26.30;;;7.90;50.10;;;;;;5076025;28;20210;-69
2022/03/22 01:30:27;;;;;;;45.67;26.73;;;7.90;50.10;;;;;;5073282;28;20640;-69
2022/03/22 01:32:55;;;;;;;47.67;26.10;;;7.80;50.20;;;;;;5076441;28;20209;-69
2022/03/22 01:35:23;;;;;;;47.17;26.30;;;7.80;50.50;;;;;;5073451;28;20209;-68
2022/03/22 01:37:52;;;;;;;49.33;27.27;;;7.70;50.60;;;;;;5072864;28;20617;-68
2022/03/22 01:40:21;;;;;;;48.60;27.90;;;7.70;50.70;;;;;;5062988;28;20248;-69
2022/03/22 01:42:49;;;;;;;49.60;27.90;;;7.60;50.70;;;;;;5076286;28;20319;-69
2022/03/22 01:45:18;;;;;;;51.27;28.80;;;7.50;50.90;;;;;;5073968;28;20670;-69
2022/03/22 01:47:46;;;;;;;49.43;28.50;;;7.60;51.10;;;;;;5074411;28;20201;-69
2022/03/22 01:50:15;;;;;;;46.03;27.87;;;7.50;51.20;;;;;;5070281;28;20272;-69
2022/03/22 01:52:43;;;;;;;52.57;29.13;;;7.50;51.20;;;;;;5071444;28;20229;-69
2022/03/22 01:55:12;;;;;;;53.87;29.97;;;7.50;51.20;;;;;;5068646;28;20205;-70
2022/03/22 01:57:40;;;;;;;54.07;30.90;;;7.50;51.40;;;;;;5070775;28;20205;-69
2022/03/22 02:00:12;;;;;;;50.93;30.97;;;7.50;51.60;;;;;;5067659;28;20207;-69
2022/03/22 02:08:13;;;;;;;50.53;29.13;;;7.40;51.70;;;;;;5071622;28;20271;-69
2022/03/22 02:10:40;;;;;;;57.47;30.07;;;7.40;51.80;;;;;;5064512;28;20652;-70
2022/03/22 02:13:07;;;;;;;53.67;30.57;;;7.30;52.50;;;;;;5077565;28;20220;-69
2022/03/22 02:15:34;;;;;;;51.30;30.60;;;7.40;52.10;;;;;;5074211;28;20223;-69
2022/03/22 02:18:03;;;;;;;54.67;31.80;;;7.30;52.20;;;;;;5072695;28;20237;-69
2022/03/22 02:20:31;;;;;;;55.73;31.40;;;7.30;52.20;;;;;;5071160;28;20226;-70
2022/03/22 02:23:07;;;;;;;54.43;31.83;;;7.30;52.40;;;;;;5072653;28;20208;-69
2022/03/22 02:25:36;;;;;;;53.43;31.60;;;7.30;53.10;;;;;;5071509;28;20204;-69
2022/03/22 02:28:04;;;;;;;52.20;31.30;;;7.20;52.60;;;;;;5059853;28;20205;-69
2022/03/22 02:30:31;;;;;;;53.23;32.03;;;7.20;52.80;;;;;;5065300;28;20700;-69
2022/03/22 02:33:01;;;;;;;53.70;31.83;;;7.20;52.90;;;;;;5075269;28;20708;-69
2022/03/22 02:35:30;;;;;;;54.23;32.10;;;7.20;53.10;;;;;;5075114;28;20228;-69
2022/03/22 02:37:58;;;;;;;57.87;32.77;;;7.30;53.30;;;;;;5065315;28;20205;-70
2022/03/22 02:40:26;;;;;;;57.73;33.60;;;7.20;53.40;;;;;;5062592;28;20205;-69
2022/03/22 02:43:00;;;;;;;55.17;32.63;;;7.20;53.40;;;;;;5067887;28;20305;-69
2022/03/22 02:45:28;;;;;;;50.97;31.90;;;7.10;53.50;;;;;;5074244;28;20292;-67
2022/03/22 02:47:55;;;;;;;56.07;32.97;;;7.10;53.60;;;;;;5063033;28;20582;-69
2022/03/22 02:50:22;;;;;;;53.73;33.10;;;7.10;53.60;;;;;;5073234;28;20233;-69
2022/03/22 02:52:49;;;;;;;63.53;32.87;;;7.10;53.70;;;;;;5071858;28;20216;-69
2022/03/22 02:55:16;;;;;;;51.80;31.83;;;7.10;53.70;;;;;;5082171;28;20299;-71
2022/03/22 02:57:44;;;;;;;48.83;31.27;;;7.10;53.70;;;;;;5080466;28;20231;-69
2022/03/22 03:00:14;;;;;;;53.13;31.53;;;7.10;53.80;;;;;;5081281;28;20231;-70
2022/03/22 03:02:43;;;;;;;52.03;30.97;;;7.00;53.60;;;;;;5080584;28;20205;-73
2022/03/22 03:05:10;;;;;;;56.13;32.73;;;7.00;53.60;;;;;;5073032;28;20209;-74
2022/03/22 03:07:37;;;;;;;52.83;30.40;;;7.00;53.70;;;;;;5077187;28;20243;-74
2022/03/22 03:10:06;;;;;;;53.20;30.37;;;7.00;53.70;;;;;;5081901;28;20234;-73
2022/03/22 03:12:33;;;;;;;49.73;30.87;;;7.00;53.70;;;;;;5081405;28;20641;-73
2022/03/22 03:15:01;;;;;;;56.30;31.10;;;7.00;54.10;;;;;;5081582;28;20209;-74
2022/03/22 03:17:29;;;;;;;50.70;29.30;;;6.90;54.10;;;;;;5080306;28;20201;-74
2022/03/22 03:19:57;;;;;;;51.23;30.40;;;6.90;54.40;;;;;;5077906;28;20662;-74
2022/03/22 03:22:24;;;;;;;52.97;30.80;;;6.90;54.40;;;;;;5079562;28;20281;-75
2022/03/22 03:24:51;;;;;;;50.43;29.90;;;6.90;54.60;;;;;;5075074;28;20211;-73
2022/03/22 03:27:18;;;;;;;47.03;28.97;;;6.80;54.50;;;;;;5080384;28;20642;-73
2022/03/22 03:29:45;;;;;;;48.03;29.33;;;6.80;54.60;;;;;;5080941;28;20212;-74
2022/03/22 03:32:15;;;;;;;51.20;29.00;;;6.80;54.70;;;;;;5081037;28;20229;-74
2022/03/22 03:34:43;;;;;;;49.30;29.80;;;6.80;54.80;;;;;;5073903;28;20214;-74
2022/03/22 03:37:10;;;;;;;48.83;29.53;;;6.70;54.90;;;;;;5075461;28;20251;-73
2022/03/22 03:39:38;;;;;;;48.57;29.60;;;6.70;55.00;;;;;;5069417;28;20260;-72
2022/03/22 03:42:05;;;;;;;50.90;30.43;;;6.70;55.10;;;;;;5084873;28;20237;-71
2022/03/22 03:47:19;;;;;;;50.23;30.03;;;6.60;55.40;;;;;;5073424;28;20192;-72
2022/03/22 03:49:48;;;;;;;54.57;30.10;;;6.50;55.50;;;;;;5082635;28;20263;-73
2022/03/22 03:52:17;;;;;;;47.93;29.30;;;6.50;55.70;;;;;;5079896;28;20243;-73
2022/03/22 03:54:45;;;;;;;48.77;29.83;;;6.50;55.90;;;;;;5080921;28;20217;-73
2022/03/22 03:57:13;;;;;;;49.53;30.97;;;6.40;56.00;;;;;;5079980;28;20205;-73
2022/03/22 03:59:40;;;;;;;54.67;31.33;;;6.40;56.00;;;;;;5081127;28;20205;-74
2022/03/22 04:02:08;;;;;;;51.83;31.23;;;6.40;56.10;;;;;;5067149;28;20292;-73
2022/03/22 04:04:37;;;;;;;51.90;32.07;;;6.40;56.30;;;;;;5079564;28;20209;-72
2022/03/22 04:07:06;;;;;;;55.37;32.17;;;6.40;56.40;;;;;;5080703;28;20671;-72
2022/03/22 04:09:33;;;;;;;53.90;31.77;;;6.50;56.60;;;;;;5081669;28;20300;-72
2022/03/22 04:12:00;;;;;;;53.00;31.23;;;6.40;56.50;;;;;;5081238;28;20209;-72
2022/03/22 04:14:27;;;;;;;55.67;32.23;;;6.40;56.50;;;;;;5081349;28;20259;-72
2022/03/22 04:16:56;;;;;;;51.63;31.27;;;6.40;56.50;;;;;;5078651;28;20232;-72
2022/03/22 04:19:23;;;;;;;56.73;33.47;;;6.40;56.50;;;;;;5065449;28;20209;-71
2022/03/22 04:21:50;;;;;;;50.97;31.57;;;6.40;56.70;;;;;;5072767;28;20252;-72
2022/03/22 04:24:19;;;;;;;52.20;31.93;;;6.40;56.70;;;;;;5072350;28;20203;-72
2022/03/22 04:26:47;;;;;;;52.07;30.93;;;6.40;56.90;;;;;;5074703;28;20650;-72
2022/03/22 04:34:46;;;;;;;55.33;34.67;;;6.40;57.20;;;;;;5077385;28;20239;-72
2022/03/22 04:37:15;;;;;;;59.53;33.97;;;6.30;57.30;;;;;;5079754;28;20581;-71
2022/03/22 04:39:44;;;;;;;53.53;32.37;;;6.30;57.30;;;;;;5079275;28;20681;-71
2022/03/22 04:42:14;;;;;;;64.90;35.03;;;6.30;57.30;;;;;;5077569;28;20263;-71
2022/03/22 04:44:42;;;;;;;61.67;33.40;;;6.30;57.50;;;;;;5074821;28;20292;-71
2022/03/22 04:47:09;;;;;;;60.10;33.87;;;6.30;57.70;;;;;;5073607;28;20209;-71
2022/03/22 04:49:37;;;;;;;56.40;34.30;;;6.30;57.80;;;;;;5068947;28;20236;-70
2022/03/22 04:57:35;;;;;;;69.30;38.03;;;6.40;58.20;;;;;;5070295;28;20696;-72
2022/03/22 05:00:02;;;;;;;57.73;34.93;;;6.40;58.40;;;;;;5074270;28;20213;-71
2022/03/22 05:02:28;;;;;;;63.67;37.13;;;6.40;59.10;;;;;;5076215;28;20705;-74
2022/03/22 05:04:55;;;;;;;59.47;36.37;;;6.40;58.60;;;;;;5077576;28;20248;-74
2022/03/22 05:07:22;;;;;;;65.07;35.63;;;6.50;58.70;;;;;;5070899;28;20642;-73
2022/03/22 05:09:51;;;;;;;59.50;36.17;;;6.50;58.70;;;;;;5057425;28;20241;-74
2022/03/22 05:12:18;;;;;;;64.87;37.30;;;6.60;58.80;;;;;;5074764;28;20253;-74
2022/03/22 05:14:50;;;;;;;60.70;36.33;;;6.70;58.80;;;;;;5073717;28;20205;-73
2022/03/22 05:17:21;;;;;;;64.30;36.20;;;6.70;58.70;;;;;;5076174;28;20670;-73
2022/03/22 05:19:49;;;;;;;68.17;38.03;;;6.80;58.70;;;;;;5067122;28;20194;-73
2022/03/22 05:22:16;;;;;;;67.10;37.47;;;6.80;58.60;;;;;;5071163;28;20279;-73
2022/03/22 05:24:43;;;;;;;78.90;39.13;;;6.90;58.60;;;;;;5071886;28;20202;-69
2022/03/22 05:27:12;;;;;;;68.23;38.83;;;6.90;58.50;;;;;;5076475;28;20328;-72
2022/03/22 05:29:39;;;;;;;64.60;38.57;;;7.00;58.40;;;;;;5076890;28;20219;-72
2022/03/22 05:32:06;;;;;;;71.80;39.00;;;7.10;58.40;;;;;;5073318;28;20316;-71
2022/03/22 05:34:34;;;;;;;66.77;40.27;;;7.10;58.30;;;;;;5072042;28;20239;-71
2022/03/22 05:37:00;;;;;;;71.37;40.83;;;7.20;58.30;;;;;;5068165;28;20208;-71
2022/03/22 05:39:27;;;;;;;76.53;40.57;;;7.30;58.20;;;;;;5057714;28;20244;-71
2022/03/22 05:41:56;;;;;;;72.73;40.83;;;7.30;58.10;;;;;;5063666;28;20252;-72
2022/03/22 05:44:26;;;;;;;72.10;41.20;;;7.40;58.10;;;;;;5075816;28;20216;-71
2022/03/22 05:46:54;;;;;;;78.93;41.40;;;7.50;58.20;;;;;;5062881;28;20692;-72
2022/03/22 05:49:21;;;;;;;67.63;39.30;;;7.50;57.90;;;;;;5070951;28;20205;-71
2022/03/22 05:51:49;;;;;;;73.80;40.40;;;7.50;57.60;;;;;;5076262;28;20225;-70
2022/03/22 05:54:16;;;;;;;76.03;42.10;;;7.60;57.50;;;;;;5077767;28;20231;-69
2022/03/22 05:56:43;;;;;;;76.33;42.03;;;7.70;57.30;;;;;;5065944;28;20193;-69
2022/03/22 05:59:11;;;;;;;71.33;41.93;;;7.80;57.20;;;;;;5077737;28;20292;-68
2022/03/22 06:01:39;;;;;;;72.90;41.67;;;7.80;57.00;;;;;;5073810;28;20201;-70
2022/03/22 06:04:06;;;;;;;68.73;39.87;;;7.90;56.90;;;;;;5076768;28;20576;-69
2022/03/22 06:06:35;;;;;;;64.03;40.00;;;7.90;56.70;;;;;;5064960;28;20224;-70
2022/03/22 06:09:02;;;;;;;71.87;41.97;;;8.00;56.70;;;;;;5077001;28;20201;-70
2022/03/22 06:11:34;;;;;;;66.67;40.23;;;8.10;56.60;;;;;;5077752;28;20233;-69
2022/03/22 06:14:01;;;;;;;71.07;42.10;;;8.20;56.60;;;;;;5070429;28;20237;-69
2022/03/22 06:16:28;;;;;;;75.57;41.80;;;8.30;56.40;;;;;;5068098;28;20240;-70
2022/03/22 06:18:56;;;;;;;72.97;42.40;;;8.60;56.60;;;;;;5077211;28;20545;-71
2022/03/22 06:21:24;;;;;;;74.93;42.80;;;8.90;56.10;;;;;;5068490;28;20221;-70
2022/03/22 06:23:51;;;;;;;75.93;42.37;;;9.20;55.40;;;;;;5069644;28;20267;-70
2022/03/22 06:26:18;;;;;;;71.57;39.70;;;9.30;54.60;;;;;;5076224;28;20554;-71
2022/03/22 06:28:45;;;;;;;73.20;39.60;;;9.40;54.20;;;;;;5077046;28;20670;-73
2022/03/22 06:31:12;;;;;;;67.70;40.30;;;9.40;54.00;;;;;;5077245;28;20243;-74
2022/03/22 06:33:39;;;;;;;76.33;41.50;;;9.40;54.00;;;;;;5077183;28;20299;-72
2022/03/22 06:36:08;;;;;;;74.57;41.93;;;9.50;54.10;;;;;;5076361;28;20201;-74
2022/03/22 06:38:35;;;;;;;69.80;39.70;;;9.60;54.10;;;;;;5074828;28;20201;-73
2022/03/22 06:41:02;;;;;;;71.43;37.83;;;9.60;54.00;;;;;;5074874;28;20297;-74
2022/03/22 06:43:31;;;;;;;67.60;37.23;;;9.70;54.00;;;;;;5067102;28;20280;-72
2022/03/22 06:46:04;;;;;;;71.67;37.23;;;9.80;54.00;;;;;;5066140;28;20212;-72
2022/03/22 06:48:31;;;;;;;51.73;31.23;;;10.00;53.00;;;;;;5073520;28;20209;-74
2022/03/22 06:50:58;;;;;;;52.37;28.63;;;10.10;53.00;;;;;;5065758;28;20229;-74
2022/03/22 06:53:26;;;;;;;43.83;25.87;;;10.10;52.60;;;;;;5063229;28;20254;-74
2022/03/22 06:55:53;;;;;;;39.63;25.97;;;10.10;52.50;;;;;;5072443;28;20240;-74
2022/03/22 06:58:22;;;;;;;46.00;27.17;;;10.20;52.50;;;;;;5063565;28;20255;-74
2022/03/22 07:00:49;;;;;;;42.37;25.50;;;10.30;52.50;;;;;;5067555;28;20205;-73
2022/03/22 07:03:16;;;;;;;38.03;24.73;;;10.40;52.20;;;;;;5069034;28;20205;-73
2022/03/22 07:05:45;;;;;;;46.17;24.80;;;10.50;52.10;;;;;;5063102;28;20210;-71
2022/03/22 07:08:12;;;;;;;36.83;23.07;;;10.50;51.90;;;;;;5066124;28;20300;-69
2022/03/22 07:10:41;;;;;;;40.00;22.63;;;10.60;51.80;;;;;;5063558;28;20689;-69
2022/03/22 07:13:11;;;;;;;35.80;22.30;;;10.70;51.60;;;;;;5069202;28;20326;-69
2022/03/22 07:15:39;;;;;;;34.67;22.17;;;10.80;51.50;;;;;;5068898;28;20201;-70
2022/03/22 07:18:08;;;;;;;39.77;22.03;;;11.00;51.30;;;;;;5072983;28;20201;-69
2022/03/22 07:20:36;;;;;;;32.27;19.10;;;11.00;50.90;;;;;;5070308;28;20225;-70
2022/03/22 07:23:04;;;;;;;35.77;20.10;;;11.20;50.80;;;;;;5064060;28;20500;-70
2022/03/22 07:25:33;;;;;;;30.07;18.67;;;11.20;50.20;;;;;;5063162;28;20214;-70
2022/03/22 07:28:01;;;;;;;30.53;19.40;;;11.30;49.80;;;;;;5066504;28;20242;-71
2022/03/22 07:30:28;;;;;;;29.77;19.77;;;11.60;49.40;;;;;;5064110;28;20213;-73
2022/03/22 07:32:55;;;;;;;32.03;20.27;;;11.60;48.90;;;;;;5063976;28;20217;-69
2022/03/22 07:35:23;;;;;;;37.00;21.00;;;11.80;48.80;;;;;;5066986;28;20228;-69
2022/03/22 07:37:50;;;;;;;32.50;21.87;;;11.90;48.40;;;;;;5063365;28;20218;-69
2022/03/22 07:40:18;;;;;;;34.63;23.03;;;12.00;48.10;;;;;;5069147;28;20201;-72
2022/03/22 07:42:45;;;;;;;33.50;22.00;;;12.20;47.70;;;;;;5065744;28;20296;-68
2022/03/22 07:45:14;;;;;;;35.50;22.47;;;12.40;47.50;;;;;;5064195;28;20288;-70
2022/03/22 07:47:41;;;;;;;34.93;21.73;;;12.50;47.10;;;;;;5073525;28;20653;-69
2022/03/22 07:53:01;;;;;;;36.23;22.63;;;12.70;46.50;;;;;;5063994;28;20221;-67
2022/03/22 07:55:29;;;;;;;33.10;21.77;;;12.80;46.00;;;;;;5059152;28;20285;-72
2022/03/22 07:57:57;;;;;;;32.10;20.57;;;12.90;45.90;;;;;;5070385;28;20237;-69
2022/03/22 08:00:25;;;;;;;32.37;20.30;;;13.10;45.60;;;;;;5077788;28;20646;-69
2022/03/22 08:02:53;;;;;;;35.80;20.27;;;13.20;45.30;;;;;;5064635;28;20205;-70
2022/03/22 08:05:21;;;;;;;31.50;18.37;;;13.30;45.10;;;;;;5067309;28;20210;-69
2022/03/22 08:07:48;;;;;;;37.27;20.67;;;13.40;44.70;;;;;;5074019;28;20235;-69
2022/03/22 08:10:15;;;;;;;29.17;19.53;;;13.50;44.30;;;;;;5069038;28;20595;-69
2022/03/22 08:12:42;;;;;;;35.43;21.47;;;13.60;44.20;;;;;;5067781;28;20644;-70
2022/03/22 08:15:10;;;;;;;31.53;20.97;;;13.70;43.90;;;;;;5071584;28;20213;-70
2022/03/22 08:17:39;;;;;;;33.60;21.27;;;13.70;44.30;;;;;;5064494;28;20606;-72
2022/03/22 08:20:08;;;;;;;32.43;21.47;;;13.80;43.60;;;;;;5067189;28;20292;-70
2022/03/22 08:22:50;;;;;;;31.27;18.73;;;13.90;43.40;;;;;;5075770;28;20297;-70
2022/03/22 08:25:23;;;;;;;32.80;20.60;;;14.00;43.00;;;;;;5067591;28;20552;-70
2022/03/22 08:27:50;;;;;;;34.10;20.57;;;14.10;42.60;;;;;;5069950;28;20228;-71
2022/03/22 08:30:20;;;;;;;36.27;20.53;;;14.20;42.50;;;;;;5066057;28;20206;-69
2022/03/22 08:32:49;;;;;;;32.23;20.03;;;14.30;42.60;;;;;;5071810;28;20689;-71
2022/03/22 08:35:16;;;;;;;28.73;20.03;;;14.40;42.40;;;;;;5073716;28;20248;-71
2022/03/22 08:37:43;;;;;;;33.20;20.00;;;14.60;42.20;;;;;;5076654;28;20210;-71
2022/03/22 08:40:15;;;;;;;29.93;19.27;;;14.80;42.00;;;;;;5064032;28;20263;-70
2022/03/22 08:42:44;;;;;;;27.37;17.50;;;14.90;41.40;;;;;;5072520;28;20240;-73
2022/03/22 08:45:15;;;;;;;28.77;17.87;;;15.10;41.30;;;;;;5079026;28;20255;-72
2022/03/22 08:47:44;;;;;;;30.23;18.07;;;15.30;41.00;;;;;;5074747;28;20213;-70
2022/03/22 08:50:15;;;;;;;24.43;17.63;;;15.50;40.60;;;;;;5075425;28;20210;-70
2022/03/22 08:52:42;;;;;;;32.63;20.37;;;15.60;40.20;;;;;;5075297;28;20265;-70
2022/03/22 08:55:13;;;;;;;29.40;19.47;;;15.80;39.90;;;;;;5078246;28;20237;-67
2022/03/22 08:57:40;;;;;;;47.23;20.13;;;15.90;39.70;;;;;;5072512;28;20354;-68
2022/03/22 09:00:10;;;;;;;32.13;18.00;;;16.10;39.80;;;;;;5074490;28;20258;-68
2022/03/22 09:02:36;;;;;;;27.53;18.33;;;16.30;39.80;;;;;;5073861;28;20217;-68
2022/03/22 09:07:50;;;;;;;25.57;16.77;;;16.60;38.90;;;;;;5064674;28;20192;-71
2022/03/22 09:10:18;;;;;;;29.13;17.13;;;16.70;38.70;;;;;;5075835;28;20243;-71
2022/03/22 09:12:45;;;;;;;22.40;17.15;;;16.90;38.40;;;;;;5064731;28;20308;-70
2022/03/22 09:15:13;;;;;;;25.83;16.57;;;17.00;38.20;;;;;;5077827;28;20644;-74
2022/03/22 09:17:41;;;;;;;29.07;18.77;;;17.30;38.40;;;;;;5075932;28;20205;-74
2022/03/22 09:20:12;;;;;;;23.90;18.40;;;17.60;39.10;;;;;;5076501;28;20209;-71
2022/03/22 09:22:39;;;;;;;30.08;20.77;;;18.20;39.20;;;;;;5074025;28;20205;-71
2022/03/22 09:25:09;;;;;;;31.77;19.88;;;20.70;38.90;;;;;;5073260;28;20233;-71
2022/03/22 09:27:36;;;;;;;27.42;19.98;;;24.70;34.10;;;;;;5060503;28;20209;-69
2022/03/22 09:30:03;;;;;;;30.02;21.98;;;28.60;29.60;;;;;;5074572;28;20630;-70
2022/03/22 09:32:30;;;;;;;26.90;20.52;;;31.40;26.50;;;;;;5062002;28;20225;-71
2022/03/22 09:34:59;;;;;;;25.33;20.23;;;33.80;25.10;;;;;;5062142;28;20229;-71
2022/03/22 09:37:27;;;;;;;25.58;21.50;;;35.90;23.40;;;;;;5068357;28;20681;-71
2022/03/22 09:39:56;;;;;;;27.75;21.00;;;36.90;22.30;;;;;;5065642;28;20201;-71
2022/03/22 09:42:27;;;;;;;27.30;22.20;;;37.60;21.80;;;;;;5068910;28;20233;-72
2022/03/22 09:44:55;;;;;;;26.63;21.92;;;38.40;21.40;;;;;;5070366;28;20198;-71
2022/03/22 09:47:22;;;;;;;23.98;19.83;;;39.10;20.90;;;;;;5068042;28;20262;-70
2022/03/22 09:49:49;;;;;;;22.02;18.27;;;40.10;20.30;;;;;;5072084;28;20216;-72
2022/03/22 09:52:17;;;;;;;23.58;19.20;;;40.30;19.80;;;;;;5061931;28;20225;-72
2022/03/22 09:54:44;;;;;;;22.27;19.40;;;40.80;19.50;;;;;;5070300;28;20209;-73
2022/03/22 09:57:11;;;;;;;21.52;17.30;;;41.70;19.40;;;;;;5077473;28;20246;-76
2022/03/22 09:59:40;;;;;;;19.85;17.60;;;42.30;19.00;;;;;;5078130;28;20227;-73
2022/03/22 10:02:08;;;;;;;20.63;17.90;;;42.40;18.30;;;;;;5075058;28;20244;-74
2022/03/22 10:04:39;;;;;;;19.25;16.38;;;42.10;18.30;;;;;;5063429;28;20300;-71
2022/03/22 10:07:07;;;;;;;17.70;15.80;;;42.20;18.00;;;;;;5068521;28;20250;-71
2022/03/22 10:09:38;;;;;;;24.58;17.40;;;42.30;18.00;;;;;;5071144;28;20216;-70
2022/03/22 10:12:07;;;;;;;21.40;16.80;;;42.70;18.00;;;;;;5071035;28;20208;-72
2022/03/22 10:14:36;;;;;;;20.73;16.65;;;42.90;18.00;;;;;;5072193;28;20310;-72
2022/03/22 10:17:13;;;;;;;21.38;16.77;;;43.40;17.80;;;;;;5068707;28;20201;-71
2022/03/22 10:19:45;;;;;;;18.63;16.63;;;43.70;17.50;;;;;;5070291;28;20647;-70
2022/03/22 10:22:12;;;;;;;20.85;16.75;;;43.90;17.30;;;;;;5062782;28;20232;-71
2022/03/22 10:24:44;;;;;;;17.85;15.98;;;44.00;17.20;;;;;;5063206;28;20259;-71
2022/03/22 10:27:24;;;;;;;16.65;14.90;;;43.70;17.30;;;;;;5071175;28;20605;-71
2022/03/22 10:29:51;;;;;;;17.60;15.05;;;43.60;17.40;;;;;;5069692;28;20732;-72
2022/03/22 10:32:32;;;;;;;16.65;14.43;;;43.20;17.10;;;;;;5072291;28;20227;-70
2022/03/22 10:35:09;;;;;;;18.48;14.98;;;42.60;17.30;;;;;;5063202;28;20201;-71
2022/03/22 10:37:36;;;;;;;18.55;14.95;;;42.20;17.80;;;;;;5069853;28;20250;-71
2022/03/22 10:40:04;;;;;;;18.10;15.15;;;41.80;17.70;;;;;;5072392;28;20216;-71
2022/03/22 10:42:33;;;;;;;21.55;16.75;;;41.70;18.20;;;;;;5070771;28;20266;-74
2022/03/22 10:45:00;;;;;;;18.95;16.55;;;41.60;18.30;;;;;;5071735;28;20260;-74
2022/03/22 10:47:28;;;;;;;23.27;16.15;;;41.70;18.20;;;;;;5068429;28;20209;-73
2022/03/22 10:50:05;;;;;;;18.88;15.32;;;42.00;17.90;;;;;;5072199;28;20232;-72
2022/03/22 10:52:32;;;;;;;21.17;14.45;;;42.00;18.00;;;;;;5061355;28;20237;-69
2022/03/22 10:55:00;;;;;;;16.77;15.00;;;42.60;18.20;;;;;;5068728;28;20215;-69
2022/03/22 10:57:32;;;;;;;21.67;16.05;;;43.20;17.70;;;;;;5068366;28;20660;-69
2022/03/22 11:00:02;;;;;;;17.30;15.45;;;43.10;17.80;;;;;;5074310;28;20213;-69
2022/03/22 11:02:38;;;;;;;18.55;15.02;;;43.20;17.70;;;;;;5071533;28;20204;-70
2022/03/22 11:05:07;;;;;;;16.70;14.85;;;42.80;17.50;;;;;;5066550;28;20208;-71
2022/03/22 11:07:37;;;;;;;20.75;16.35;;;41.70;17.80;;;;;;5069832;28;20676;-70
2022/03/22 11:10:05;;;;;;;19.17;15.63;;;41.00;18.50;;;;;;5076005;28;20282;-69
2022/03/22 11:12:34;;;;;;;19.67;16.83;;;40.70;18.30;;;;;;5073152;28;20324;-72
2022/03/22 11:15:02;;;;;;;17.90;14.82;;;40.10;18.60;;;;;;5071368;28;20209;-72
2022/03/22 11:17:34;;;;;;;36.45;16.42;;;39.70;18.90;;;;;;5076908;28;20270;-74
2022/03/22 11:20:04;;;;;;;22.80;14.30;;;39.10;18.80;;;;;;5064387;28;20233;-71
2022/03/22 11:22:31;;;;;;;21.00;14.90;;;38.90;19.40;;;;;;5076441;28;20682;-70
2022/03/22 11:25:10;;;;;;;17.48;13.90;;;39.10;19.20;;;;;;5071718;28;20206;-72
2022/03/22 11:27:38;;;;;;;17.33;14.05;;;39.30;18.90;;;;;;5066646;28;20223;-70
2022/03/22 11:30:07;;;;;;;16.05;12.80;;;38.90;18.70;;;;;;5065402;28;20209;-71
2022/03/22 11:35:24;;;;;;;17.25;13.48;;;38.00;18.90;;;;;;5064466;28;20200;-72
2022/03/22 11:38:00;;;;;;;19.95;13.98;;;37.10;19.30;;;;;;5067701;28;20651;-71
2022/03/22 11:43:13;;;;;;;17.67;14.40;;;34.70;20.10;;;;;;5059974;28;20295;-70
2022/03/22 11:45:48;;;;;;;17.83;13.70;;;33.60;21.40;;;;;;5067028;28;20205;-68
2022/03/22 11:48:17;;;;;;;19.73;14.90;;;33.10;20.80;;;;;;5073626;28;20212;-73
2022/03/22 11:50:44;;;;;;;21.73;13.57;;;32.30;21.30;;;;;;5074313;28;20214;-71
2022/03/22 11:53:18;;;;;;;21.77;13.35;;;31.80;21.60;;;;;;5071640;28;20225;-72
2022/03/22 11:55:50;;;;;;;19.55;13.63;;;31.10;22.40;;;;;;5075459;28;20546;-69
2022/03/22 11:58:17;;;;;;;20.05;14.00;;;30.70;22.60;;;;;;5076714;28;20213;-71
2022/03/22 12:00:46;;;;;;;20.73;14.35;;;30.10;22.70;;;;;;5077447;28;20325;-71
2022/03/22 12:03:17;;;;;;;17.80;12.68;;;29.60;22.90;;;;;;5075286;28;20205;-72
2022/03/22 12:05:44;;;;;;;19.17;13.73;;;29.10;22.90;;;;;;5070895;28;20329;-69
2022/03/22 12:08:14;;;;;;;18.70;12.90;;;28.60;23.60;;;;;;5078130;28;20209;-70
2022/03/22 12:10:45;;;;;;;18.33;12.95;;;28.20;23.80;;;;;;5076854;28;20209;-72
2022/03/22 12:13:13;;;;;;;23.63;14.32;;;28.00;23.50;;;;;;5064562;28;20245;-71
2022/03/22 12:15:40;;;;;;;21.60;13.57;;;27.80;23.70;;;;;;5069988;28;20251;-72
2022/03/22 12:18:08;;;;;;;17.13;12.60;;;27.30;24.50;;;;;;5069075;28;20213;-71
2022/03/22 12:20:37;;;;;;;19.27;13.30;;;27.30;24.90;;;;;;5074107;28;20236;-73
2022/03/22 12:23:06;;;;;;;18.75;12.25;;;27.40;24.60;;;;;;5068424;28;20581;-70
2022/03/22 12:25:35;;;;;;;15.95;13.02;;;27.60;24.40;;;;;;5061888;28;20286;-72
2022/03/22 12:28:04;;;;;;;20.20;12.43;;;27.70;24.10;;;;;;5060231;28;20297;-71
2022/03/22 12:30:33;;;;;;;18.17;13.07;;;27.70;24.30;;;;;;5072349;28;20209;-72
2022/03/22 12:33:02;;;;;;;15.75;11.98;;;27.70;24.00;;;;;;5064898;28;20545;-71
2022/03/22 12:35:30;;;;;;;18.85;13.00;;;27.50;23.90;;;;;;5063284;28;20208;-71
2022/03/22 12:37:59;;;;;;;14.68;12.07;;;27.30;24.10;;;;;;5070133;28;20216;-71
2022/03/22 12:40:26;;;;;;;17.83;11.95;;;27.00;24.50;;;;;;5071549;28;20206;-71
2022/03/22 12:42:55;;;;;;;16.30;11.82;;;26.50;24.50;;;;;;5065436;28;20225;-71
2022/03/22 12:45:23;;;;;;;24.95;12.25;;;26.10;24.80;;;;;;5069035;28;20262;-70
2022/03/22 12:47:52;;;;;;;18.60;11.85;;;25.70;25.00;;;;;;5070319;28;20208;-67
2022/03/22 12:50:21;;;;;;;20.52;12.40;;;25.40;25.60;;;;;;5059268;28;20644;-65
2022/03/22 12:52:51;;;;;;;16.23;12.30;;;25.30;25.60;;;;;;5071930;28;20205;-66
2022/03/22 12:55:21;;;;;;;17.70;12.10;;;25.20;25.60;;;;;;5073599;28;20209;-72
2022/03/22 12:57:51;;;;;;;17.25;12.75;;;25.20;25.80;;;;;;5070991;28;20288;-68
2022/03/22 13:00:29;;;;;;;16.35;11.55;;;25.30;25.80;;;;;;5066958;28;20773;-72
2022/03/22 13:02:56;;;;;;;15.65;11.35;;;25.40;25.90;;;;;;5062822;28;20228;-66
2022/03/22 13:05:25;;;;;;;15.95;11.48;;;25.50;25.60;;;;;;5064093;28;20568;-67
2022/03/22 13:07:52;;;;;;;14.15;10.90;;;25.30;25.80;;;;;;5072785;28;20256;-67
2022/03/22 13:13:16;;;;;;;14.85;11.20;;;25.20;25.80;;;;;;5073309;28;20697;-66